»·PEaware :: XOJ539 KLAS-KTPA

XOJ539 :: KLAS-KTPA

FLIGHT INFORMATION

Flight Status: Arrived
Operator:
XOJET
More flights by this operator :: More flights under this callsign
Pilot: Charles S. (11412)
Aircraft: BOMBARDIER BD-100 CHALLENGER 300
(CL30)
More flights by this aircraft type
Origin: KLAS McCarran Intl
United States
Destination: KTPA Tampa Intl
United States
More flights between these airports :: More routes between these airports
Route: COWBY8 GUP J72 TXO FUZ J58 HRV Q105 REDFN Q100 REMIS SIMMR BLOND4
File this flight plan on PilotEdge
Remarks:
Altitude:
(Current/Filed)
41,000ft
Speed:
(Current/Filed)
270kts
Departed: 09-Sep-18 02:02 PM
Arrived: 09-Sep-18 06:12 PM
Distance/Time
Traveled:
1720nm/4:10
Distance/Time
To Go:
Arrived

Flight Plot

Page will automatically refresh every two minutes.

Flight plan parsing failed; only flown route is shown


Map Options




Map Legend


Flown Route
Filed Route
Departure Airport
Arrival Airport
Navaid (VOR, NDB)
Fix

Horizontal Profiles

Position Reports

Time Latitude Longitude Heading Altitude Ground
Speed
09-Sep-18 13:44 36.080936 -115.172147 89 2175ft 0kts
09-Sep-18 13:45 36.080936 -115.172147 89 2175ft 0kts
09-Sep-18 13:46 36.080936 -115.172147 89 2175ft 0kts
09-Sep-18 13:47 36.080936 -115.172147 89 2175ft 0kts
09-Sep-18 13:48 36.080936 -115.172147 89 2175ft 0kts
09-Sep-18 13:49 36.080936 -115.172147 89 2175ft 0kts
09-Sep-18 13:50 36.080936 -115.172147 89 2175ft 0kts
09-Sep-18 13:51 36.080936 -115.172147 89 2175ft 0kts
09-Sep-18 13:52 36.080936 -115.172147 89 2175ft 0kts
09-Sep-18 13:53 36.080936 -115.172147 89 2175ft 0kts
09-Sep-18 13:54 36.080936 -115.172147 89 2175ft 0kts
09-Sep-18 13:55 36.080936 -115.172147 89 2175ft 0kts
09-Sep-18 13:56 36.080931 -115.171968 93 2174ft 6kts
09-Sep-18 13:57 36.080963 -115.171664 52 2173ft 0kts
09-Sep-18 13:58 36.081010 -115.171632 9 2173ft 0kts
09-Sep-18 13:59 36.081041 -115.171639 337 2173ft 0kts
09-Sep-18 14:00 36.081463 -115.169532 109 2168ft 8kts
09-Sep-18 14:01 36.078024 -115.170267 90 2180ft 3kts
09-Sep-18 14:02 36.078029 -115.166765 90 2169ft 24kts
09-Sep-18 14:03 36.077717 -115.161310 163 2153ft 4kts
09-Sep-18 14:04 36.076352 -115.158816 94 2148ft 63kts
09-Sep-18 14:05 36.077846 -115.113581 88 3003ft 233kts
09-Sep-18 14:06 36.083806 -115.020244 86 6767ft 305kts
09-Sep-18 14:07 36.080966 -114.933736 108 7705ft 230kts
09-Sep-18 14:08 36.064170 -114.848027 105 8454ft 279kts
09-Sep-18 14:09 36.048876 -114.754127 103 10712ft 292kts
09-Sep-18 14:10 36.033716 -114.653119 102 13707ft 312kts
09-Sep-18 14:11 36.017142 -114.539652 102 16746ft 361kts
09-Sep-18 14:12 35.998642 -114.412449 102 19771ft 392kts
09-Sep-18 14:13 35.978725 -114.275853 102 21050ft 417kts
09-Sep-18 14:14 35.958195 -114.135890 102 19655ft 411kts
09-Sep-18 14:15 35.938275 -114.001501 102 19888ft 396kts
09-Sep-18 14:16 35.917571 -113.864885 102 22680ft 417kts
09-Sep-18 14:17 35.895080 -113.721100 102 23046ft 429kts
09-Sep-18 14:18 35.872334 -113.577376 102 23049ft 428kts
09-Sep-18 14:19 35.849567 -113.434040 102 24343ft 434kts
09-Sep-18 14:20 35.825769 -113.285820 102 26554ft 452kts
09-Sep-18 14:21 35.809913 -113.131405 94 28737ft 461kts
09-Sep-18 14:22 35.799920 -112.973753 92 30872ft 466kts
09-Sep-18 14:23 35.789878 -112.814640 90 32855ft 469kts
09-Sep-18 14:24 35.779726 -112.654831 89 34839ft 469kts
09-Sep-18 14:25 35.769380 -112.495284 89 36721ft 468kts
09-Sep-18 14:26 35.760728 -112.364473 89 38200ft 466kts
09-Sep-18 14:27 35.750183 -112.208207 89 39927ft 461kts
09-Sep-18 14:28 35.737659 -112.026152 90 41260ft 470kts
09-Sep-18 14:29 35.726056 -111.861045 90 41262ft 503kts
09-Sep-18 14:30 35.715646 -111.716008 90 41267ft 521kts
09-Sep-18 14:31 35.702752 -111.539834 90 41281ft 516kts
09-Sep-18 14:32 35.689680 -111.364414 90 41287ft 517kts
09-Sep-18 14:33 35.674161 -111.160424 91 41160ft 517kts
09-Sep-18 14:34 35.662856 -111.014473 91 41117ft 515kts
09-Sep-18 14:35 35.649097 -110.840183 92 41118ft 511kts
09-Sep-18 14:36 35.635162 -110.666989 92 41121ft 512kts
09-Sep-18 14:37 35.620922 -110.493081 92 41122ft 512kts
09-Sep-18 14:38 35.606611 -110.321242 92 41116ft 512kts
09-Sep-18 14:39 35.591901 -110.147759 92 41117ft 512kts
09-Sep-18 14:40 35.576936 -109.974255 92 41185ft 512kts
09-Sep-18 14:41 35.561705 -109.800560 92 41220ft 512kts
09-Sep-18 14:42 35.546348 -109.628297 92 41222ft 512kts
09-Sep-18 14:43 35.530683 -109.455504 92 41223ft 512kts
09-Sep-18 14:44 35.514787 -109.282785 93 41216ft 512kts
09-Sep-18 14:45 35.498621 -109.109688 94 41213ft 510kts
09-Sep-18 14:46 35.482418 -108.939041 94 41201ft 501kts
09-Sep-18 14:47 35.455313 -108.772501 102 41203ft 504kts
09-Sep-18 14:48 35.422397 -108.607421 102 41203ft 504kts
09-Sep-18 14:49 35.388715 -108.441829 102 41204ft 504kts
09-Sep-18 14:50 35.355429 -108.279743 103 41200ft 504kts
09-Sep-18 14:51 35.321134 -108.114003 103 41201ft 504kts
09-Sep-18 14:52 35.286682 -107.948727 103 41202ft 504kts
09-Sep-18 14:53 35.251953 -107.783348 103 41203ft 504kts
09-Sep-18 14:54 35.216898 -107.617608 103 41205ft 504kts
09-Sep-18 14:55 35.181758 -107.452734 103 41197ft 504kts
09-Sep-18 14:56 35.146412 -107.288004 103 41161ft 504kts
09-Sep-18 14:57 35.110651 -107.122537 103 41156ft 504kts
09-Sep-18 14:58 35.074853 -106.958092 104 41156ft 504kts
09-Sep-18 14:59 35.041748 -106.792828 98 41163ft 501kts
09-Sep-18 15:00 35.020743 -106.625786 97 41136ft 503kts
09-Sep-18 15:01 34.999927 -106.457665 97 41125ft 504kts
09-Sep-18 15:02 34.978927 -106.289228 98 41116ft 506kts
09-Sep-18 15:03 34.957698 -106.120839 98 41118ft 507kts
09-Sep-18 15:04 34.936027 -105.950852 98 41128ft 508kts
09-Sep-18 15:05 34.914075 -105.780779 98 41140ft 510kts
09-Sep-18 15:06 34.891885 -105.610705 98 41168ft 511kts
09-Sep-18 15:07 34.869359 -105.440030 98 41113ft 513kts
09-Sep-18 15:08 34.846632 -105.269524 99 41060ft 512kts
09-Sep-18 15:09 34.823588 -105.098607 99 41063ft 512kts
09-Sep-18 15:10 34.800529 -104.929257 100 41064ft 506kts
09-Sep-18 15:11 34.777362 -104.761341 100 41066ft 503kts
09-Sep-18 15:12 34.754004 -104.593663 100 41067ft 504kts
09-Sep-18 15:13 34.730498 -104.426639 100 41068ft 504kts
09-Sep-18 15:14 34.706860 -104.260322 101 41061ft 504kts
09-Sep-18 15:15 34.682846 -104.093085 101 41057ft 504kts
09-Sep-18 15:16 34.658594 -103.925903 101 41045ft 504kts
09-Sep-18 15:17 34.634114 -103.758789 101 41053ft 504kts
09-Sep-18 15:18 34.609404 -103.591775 101 41070ft 503kts
09-Sep-18 15:19 34.584508 -103.425108 101 41086ft 504kts
09-Sep-18 15:20 34.559424 -103.258826 101 41086ft 503kts
09-Sep-18 15:21 34.534165 -103.092876 101 41089ft 500kts
09-Sep-18 15:22 34.508912 -102.928662 102 41091ft 494kts
09-Sep-18 15:23 34.476061 -102.767720 108 41093ft 493kts
09-Sep-18 15:24 34.435889 -102.609483 108 41086ft 493kts
09-Sep-18 15:25 34.395004 -102.451135 108 41076ft 493kts
09-Sep-18 15:26 34.353883 -102.293109 109 41069ft 493kts
09-Sep-18 15:27 34.312732 -102.135955 109 41060ft 493kts
09-Sep-18 15:28 34.271174 -101.978177 109 41054ft 493kts
09-Sep-18 15:29 34.229451 -101.820694 109 41055ft 493kts
09-Sep-18 15:30 34.187599 -101.663631 109 41056ft 493kts
09-Sep-18 15:31 34.145311 -101.505851 109 41057ft 493kts
09-Sep-18 15:32 34.103383 -101.350293 109 41058ft 493kts
09-Sep-18 15:33 34.062171 -101.198291 110 41053ft 493kts
09-Sep-18 15:34 34.019595 -101.042091 110 41053ft 493kts
09-Sep-18 15:35 33.976856 -100.886188 110 41043ft 488kts
09-Sep-18 15:36 33.934425 -100.732257 109 41036ft 485kts
09-Sep-18 15:37 33.892424 -100.580702 109 41039ft 486kts
09-Sep-18 15:38 33.849664 -100.427276 109 41039ft 486kts
09-Sep-18 15:39 33.806779 -100.274204 110 41036ft 486kts
09-Sep-18 15:40 33.763645 -100.121084 110 41036ft 486kts
09-Sep-18 15:41 33.720253 -99.967885 110 41036ft 486kts
09-Sep-18 15:42 33.676529 -99.814341 110 41036ft 486kts
09-Sep-18 15:43 33.632892 -99.661905 110 41008ft 486kts
09-Sep-18 15:44 33.588853 -99.508882 110 40993ft 486kts
09-Sep-18 15:45 33.544842 -99.356793 110 40999ft 486kts
09-Sep-18 15:46 33.500718 -99.205106 111 41006ft 485kts
09-Sep-18 15:47 33.456255 -99.053051 111 41003ft 485kts
09-Sep-18 15:48 33.412006 -98.902447 111 40999ft 483kts
09-Sep-18 15:49 33.367559 -98.751955 111 41001ft 482kts
09-Sep-18 15:50 33.322716 -98.600915 110 41000ft 482kts
09-Sep-18 15:51 33.277720 -98.450120 111 41000ft 482kts
09-Sep-18 15:52 33.233544 -98.302795 111 41003ft 482kts
09-Sep-18 15:53 33.188776 -98.154220 111 41014ft 482kts
09-Sep-18 15:54 33.143586 -98.005029 111 41016ft 482kts
09-Sep-18 15:55 33.098291 -97.856150 111 41014ft 483kts
09-Sep-18 15:56 33.052238 -97.705570 112 41016ft 486kts
09-Sep-18 15:57 33.006235 -97.555899 113 41002ft 486kts
09-Sep-18 15:58 32.960020 -97.406285 114 40981ft 485kts
09-Sep-18 15:59 32.914063 -97.258381 114 40974ft 484kts
09-Sep-18 16:00 32.867445 -97.111797 115 40976ft 486kts
09-Sep-18 16:01 32.818531 -96.961688 114 40973ft 492kts
09-Sep-18 16:02 32.769280 -96.811217 114 40974ft 492kts
09-Sep-18 16:03 32.719628 -96.660304 114 40975ft 491kts
09-Sep-18 16:04 32.669874 -96.509799 114 40970ft 491kts
09-Sep-18 16:05 32.620055 -96.359817 114 40968ft 491kts
09-Sep-18 16:06 32.571666 -96.214739 115 40962ft 491kts
09-Sep-18 16:07 32.521634 -96.065466 115 40963ft 491kts
09-Sep-18 16:08 32.471229 -95.915818 115 40963ft 491kts
09-Sep-18 16:09 32.420639 -95.766277 115 40959ft 491kts
09-Sep-18 16:10 32.369769 -95.616614 115 40950ft 490kts
09-Sep-18 16:11 32.318948 -95.467782 115 40947ft 491kts
09-Sep-18 16:12 32.268077 -95.319476 116 40941ft 487kts
09-Sep-18 16:13 32.217163 -95.171728 115 40945ft 488kts
09-Sep-18 16:14 32.166002 -95.023927 115 40958ft 488kts
09-Sep-18 16:15 32.114817 -94.876810 115 40946ft 490kts
09-Sep-18 16:16 32.063049 -94.728553 114 40936ft 489kts
09-Sep-18 16:17 32.011545 -94.581661 114 40936ft 489kts
09-Sep-18 16:18 31.959443 -94.433776 114 40942ft 489kts
09-Sep-18 16:19 31.907926 -94.288195 115 40935ft 489kts
09-Sep-18 16:20 31.856019 -94.142305 115 40922ft 489kts
09-Sep-18 16:21 31.805282 -94.000458 115 40920ft 489kts
09-Sep-18 16:22 31.755091 -93.860265 115 40923ft 489kts
09-Sep-18 16:23 31.704411 -93.719575 115 40927ft 489kts
09-Sep-18 16:24 31.651549 -93.573528 115 40929ft 489kts
09-Sep-18 16:25 31.598521 -93.427481 115 40930ft 489kts
09-Sep-18 16:26 31.546302 -93.284258 115 40925ft 488kts
09-Sep-18 16:27 31.493347 -93.139656 115 40925ft 489kts
09-Sep-18 16:28 31.440082 -92.994847 115 40924ft 490kts
09-Sep-18 16:29 31.386559 -92.849892 115 40920ft 491kts
09-Sep-18 16:30 31.332498 -92.704110 115 40919ft 491kts
09-Sep-18 16:31 31.278410 -92.558870 115 40921ft 491kts
09-Sep-18 16:32 31.212741 -92.421515 124 40922ft 488kts
09-Sep-18 16:33 31.141816 -92.290992 124 40922ft 487kts
09-Sep-18 16:34 31.069989 -92.160074 124 40933ft 488kts
09-Sep-18 16:35 30.996772 -92.027334 123 40936ft 490kts
09-Sep-18 16:36 30.924238 -91.896182 122 40937ft 485kts
09-Sep-18 16:37 30.865974 -91.791044 121 40933ft 475kts
09-Sep-18 16:38 30.782642 -91.641245 121 40935ft 477kts
09-Sep-18 16:39 30.710663 -91.512350 121 40935ft 476kts
09-Sep-18 16:40 30.638736 -91.383964 121 40934ft 476kts
09-Sep-18 16:41 30.578652 -91.277038 122 40929ft 476kts
09-Sep-18 16:42 30.506210 -91.148526 122 40926ft 477kts
09-Sep-18 16:43 30.421434 -90.998641 121 40927ft 478kts
09-Sep-18 16:44 30.348606 -90.870287 121 40927ft 478kts
09-Sep-18 16:45 30.288255 -90.764248 121 40927ft 478kts
09-Sep-18 16:46 30.215105 -90.636111 121 40927ft 478kts
09-Sep-18 16:47 30.142014 -90.508475 121 40928ft 478kts
09-Sep-18 16:48 30.068661 -90.380793 121 40928ft 478kts
09-Sep-18 16:49 29.995292 -90.253492 121 40929ft 478kts
09-Sep-18 16:50 29.921929 -90.126610 121 40926ft 478kts
09-Sep-18 16:51 29.847179 -90.000648 127 40913ft 479kts
09-Sep-18 16:52 29.762068 -89.882953 128 40916ft 480kts
09-Sep-18 16:53 29.676730 -89.766541 128 40916ft 480kts
09-Sep-18 16:54 29.590815 -89.649891 128 40916ft 480kts
09-Sep-18 16:55 29.504665 -89.533295 128 40917ft 480kts
09-Sep-18 16:56 29.418685 -89.417269 128 40917ft 480kts
09-Sep-18 16:57 29.332885 -89.301821 128 40918ft 480kts
09-Sep-18 16:58 29.246563 -89.185999 128 40917ft 480kts
09-Sep-18 16:59 29.160330 -89.070625 128 40918ft 480kts
09-Sep-18 17:00 29.073513 -88.954874 127 40919ft 478kts
09-Sep-18 17:01 28.987655 -88.840598 127 40914ft 471kts
09-Sep-18 17:02 28.903419 -88.727231 122 40909ft 466kts
09-Sep-18 17:03 28.854385 -88.593015 105 40909ft 461kts
09-Sep-18 17:04 28.814818 -88.454571 105 40912ft 460kts
09-Sep-18 17:05 28.776387 -88.317450 105 40924ft 461kts
09-Sep-18 17:06 28.737465 -88.178497 105 40925ft 461kts
09-Sep-18 17:07 28.698475 -88.039835 105 40925ft 461kts
09-Sep-18 17:08 28.659782 -87.902771 105 40926ft 461kts
09-Sep-18 17:09 28.620471 -87.764146 105 40923ft 461kts
09-Sep-18 17:10 28.581166 -87.626075 105 40925ft 461kts
09-Sep-18 17:11 28.541753 -87.488274 105 40925ft 461kts
09-Sep-18 17:12 28.502438 -87.351395 105 40923ft 461kts
09-Sep-18 17:13 28.462583 -87.213229 105 40936ft 461kts
09-Sep-18 17:14 28.422799 -87.076004 106 40927ft 461kts
09-Sep-18 17:15 28.382760 -86.938366 107 40926ft 461kts
09-Sep-18 17:16 28.342270 -86.799697 107 40931ft 464kts
09-Sep-18 17:17 28.301772 -86.661269 107 40941ft 463kts
09-Sep-18 17:18 28.261595 -86.523703 107 40944ft 463kts
09-Sep-18 17:19 28.221126 -86.385682 107 40944ft 463kts
09-Sep-18 17:20 28.180849 -86.248898 107 40945ft 463kts
09-Sep-18 17:21 28.140288 -86.111712 107 40945ft 463kts
09-Sep-18 17:22 28.099354 -85.973828 107 40945ft 463kts
09-Sep-18 17:23 28.058436 -85.836565 107 40938ft 455kts
09-Sep-18 17:24 28.018992 -85.704788 107 40906ft 432kts
09-Sep-18 17:25 27.981228 -85.579093 107 40772ft 416kts
09-Sep-18 17:26 27.943970 -85.455528 107 40027ft 416kts
09-Sep-18 17:27 27.906905 -85.333054 108 39273ft 416kts
09-Sep-18 17:28 27.897807 -85.303074 108 39142ft 414kts
09-Sep-18 17:29 27.882266 -85.224969 96 39183ft 400kts
09-Sep-18 17:30 27.870171 -85.102880 96 39180ft 384kts
09-Sep-18 17:31 27.859071 -84.985433 97 39179ft 371kts
09-Sep-18 17:32 27.848267 -84.870956 97 39182ft 361kts
09-Sep-18 17:33 27.837740 -84.759732 97 39182ft 353kts
09-Sep-18 17:34 27.827317 -84.650430 97 39196ft 350kts
09-Sep-18 17:35 27.816821 -84.541194 97 39217ft 348kts
09-Sep-18 17:36 27.806382 -84.433428 97 39229ft 346kts
09-Sep-18 17:37 27.796653 -84.333765 98 39229ft 344kts
09-Sep-18 17:38 27.788430 -84.211642 86 35123ft 441kts
09-Sep-18 17:39 27.820989 -84.075344 74 32765ft 461kts
09-Sep-18 17:40 27.859022 -83.937717 73 30360ft 450kts
09-Sep-18 17:41 27.894633 -83.809919 73 27842ft 409kts
09-Sep-18 17:42 27.917241 -83.690496 89 25355ft 381kts
09-Sep-18 17:43 27.918032 -83.574323 90 22864ft 364kts
09-Sep-18 17:44 27.917412 -83.460520 91 20400ft 365kts
09-Sep-18 17:45 27.916381 -83.350225 90 17969ft 356kts
09-Sep-18 17:46 27.915269 -83.244640 91 15558ft 342kts
09-Sep-18 17:47 27.927053 -83.143992 66 13079ft 321kts
09-Sep-18 17:48 27.962775 -83.057582 64 10594ft 295kts
09-Sep-18 17:49 27.997010 -82.978576 63 8113ft 273kts
09-Sep-18 17:50 28.029056 -82.905632 63 5616ft 250kts
09-Sep-18 17:51 28.055686 -82.836028 94 4985ft 252kts
09-Sep-18 17:52 28.040537 -82.761343 104 4988ft 252kts
09-Sep-18 17:53 28.022470 -82.684814 105 4982ft 253kts
09-Sep-18 17:54 27.984474 -82.627058 175 4993ft 253kts
09-Sep-18 17:55 27.915782 -82.623614 179 4972ft 242kts
09-Sep-18 17:56 27.848226 -82.623762 180 4973ft 242kts
09-Sep-18 17:57 27.781300 -82.624906 181 4828ft 242kts
09-Sep-18 17:58 27.716017 -82.626629 182 3039ft 224kts
09-Sep-18 17:59 27.681072 -82.589208 98 1909ft 181kts
09-Sep-18 18:00 27.704713 -82.552451 347 1617ft 206kts
09-Sep-18 18:01 27.765800 -82.548786 4 2368ft 222kts
09-Sep-18 18:02 27.789028 -82.547035 1 2499ft 226kts
09-Sep-18 18:03 27.789028 -82.547035 1 2499ft 226kts
09-Sep-18 18:04 27.789028 -82.547035 1 2499ft 226kts
09-Sep-18 18:05 27.789028 -82.547035 1 2499ft 226kts
09-Sep-18 18:06 27.789028 -82.547035 1 2499ft 226kts
09-Sep-18 18:07 27.789028 -82.547035 1 2499ft 226kts
09-Sep-18 18:08 27.789028 -82.547035 1 2499ft 226kts
09-Sep-18 18:09 27.789028 -82.547035 1 2499ft 226kts
09-Sep-18 18:10 27.839698 -82.546030 359 2569ft 243kts
09-Sep-18 18:11 27.899396 -82.544304 359 1382ft 163kts
09-Sep-18 18:12 27.938844 -82.543285 1 574ft 133kts
09-Sep-18 18:13 27.971684 -82.542071 1 11ft 76kts
09-Sep-18 18:14 27.975232 -82.540410 113 13ft 12kts
09-Sep-18 18:15 27.974638 -82.538407 125 15ft 15kts
09-Sep-18 18:16 27.973088 -82.532928 91 20ft 30kts
09-Sep-18 18:17 27.972950 -82.527765 92 23ft 0kts
09-Sep-18 18:18 27.968738 -82.527253 99 20ft 17kts
09-Sep-18 18:19 27.967299 -82.526391 176 20ft 0kts
09-Sep-18 18:20 27.967299 -82.526391 176 20ft 0kts
09-Sep-18 18:21 27.967299 -82.526391 176 20ft 0kts
09-Sep-18 18:22 27.967299 -82.526391 176 20ft 0kts
09-Sep-18 18:23 27.967299 -82.526391 176 20ft 0kts

Navigation Log

Ident Type
Flight plan parsing failed, navigation log unavailable